Time;durP1;ratioP1;P1;durP2;ratioP2;P2;SDS_P1;SDS_P2;PMS_P1;PMS_P2;Temp;Humidity;BMP_temperature;BMP_pressure;BME280_temperature;BME280_humidity;BME280_pressure;Samples;Min_cycle;Max_cycle;Signal;HPM_P1;HPM_P2
2023/12/26 00:02:08;;;;;;;;;;;;;;;;;;5012590;28;20404;-47
2023/12/26 00:04:34;;;;;;;;;;;;;;;;;;5012364;28;20286;-47
2023/12/26 00:07:00;;;;;;;;;;;;;;;;;;5032131;28;19924;-47
2023/12/26 00:09:26;;;;;;;;;;;;;;;;;;5030860;28;19963;-47
2023/12/26 00:11:52;;;;;;;;;;;;;;;;;;5030777;28;19917;-50
2023/12/26 00:14:18;;;;;;;;;;;;;;;;;;5031996;28;19934;-52
2023/12/26 00:16:45;;;;;;;;;;;;;;;;;;5031822;28;19913;-49
2023/12/26 00:19:11;;;;;;;;;;;;;;;;;;5031911;28;20425;-50
2023/12/26 00:21:37;;;;;;;;;;;;;;;;;;5030689;28;20443;-50
2023/12/26 00:24:03;;;;;;;;;;;;;;;;;;5030728;28;20373;-50
2023/12/26 00:26:29;;;;;;;;;;;;;;;;;;5031730;28;20342;-47
2023/12/26 00:28:57;;;;;;;;;;;;;;;;;;5029007;28;19914;-47
2023/12/26 00:31:24;;;;;;;;;;;;;;;;;;5025118;28;20005;-47
2023/12/26 00:33:50;;;;;;;;;;;;;;;;;;5030502;28;19917;-47
2023/12/26 00:36:19;;;;;;;;;;;;;;;;;;5029480;28;19913;-46
2023/12/26 00:38:45;;;;;;;;;;;;;;;;;;5030677;28;19913;-49
2023/12/26 00:41:12;;;;;;;;;;;;;;;;;;5027368;28;19917;-47
2023/12/26 00:43:38;;;;;;;;;;;;;;;;;;5010703;28;19918;-47
2023/12/26 00:46:04;;;;;;;;;;;;;;;;;;5025595;28;19957;-47
2023/12/26 00:48:30;;;;;;;;;;;;;;;;;;5018299;28;19922;-47
2023/12/26 00:50:56;;;;;;;;;;;;;;;;;;5013448;28;19967;-49
2023/12/26 00:53:22;;;;;;;;;;;;;;;;;;5012885;28;19922;-47
2023/12/26 00:55:48;;;;;;;;;;;;;;;;;;5010454;28;20376;-47
2023/12/26 00:58:15;;;;;;;;;;;;;;;;;;5011623;28;19921;-47
2023/12/26 01:00:41;;;;;;;;;;;;;;;;;;5025333;28;20020;-49
2023/12/26 01:03:09;;;;;;;;;;;;;;;;;;5034969;28;19967;-47
2023/12/26 01:05:35;;;;;;;;;;;;;;;;;;5022507;28;19921;-47
2023/12/26 01:08:01;;;;;;;;;;;;;;;;;;5014008;28;20392;-47
2023/12/26 01:10:27;;;;;;;;;;;;;;;;;;5014055;28;20412;-48
2023/12/26 01:12:53;;;;;;;;;;;;;;;;;;5029085;28;20373;-47
2023/12/26 01:15:19;;;;;;;;;;;;;;;;;;5016748;28;19917;-47
2023/12/26 01:17:45;;;;;;;;;;;;;;;;;;5016720;28;19914;-47
2023/12/26 01:20:11;;;;;;;;;;;;;;;;;;5023518;28;19914;-47
2023/12/26 01:22:37;;;;;;;;;;;;;;;;;;5013966;28;19914;-47
2023/12/26 01:25:05;;;;;;;;;;;;;;;;;;5029787;28;20000;-47
2023/12/26 01:27:31;;;;;;;;;;;;;;;;;;5032841;28;19913;-46
2023/12/26 01:29:59;;;;;;;;;;;;;;;;;;5017611;28;19921;-47
2023/12/26 01:32:27;;;;;;;;;;;;;;;;;;5015150;28;19917;-47
2023/12/26 01:34:53;;;;;;;;;;;;;;;;;;5008846;28;19920;-46
2023/12/26 01:37:19;;;;;;;;;;;;;;;;;;5032328;28;19913;-48
2023/12/26 01:39:46;;;;;;;;;;;;;;;;;;5013380;28;19920;-49
2023/12/26 01:42:13;;;;;;;;;;;;;;;;;;5026467;28;19940;-50
2023/12/26 01:44:39;;;;;;;;;;;;;;;;;;5031445;28;19920;-47
2023/12/26 01:47:05;;;;;;;;;;;;;;;;;;5023071;28;20382;-47
2023/12/26 01:49:31;;;;;;;;;;;;;;;;;;5031559;28;19913;-47
2023/12/26 01:51:58;;;;;;;;;;;;;;;;;;5020050;28;19963;-46
2023/12/26 01:54:24;;;;;;;;;;;;;;;;;;5020375;28;20382;-47
2023/12/26 01:56:50;;;;;;;;;;;;;;;;;;5014331;28;19917;-47
2023/12/26 01:59:16;;;;;;;;;;;;;;;;;;5033642;28;19913;-47
2023/12/26 02:01:42;;;;;;;;;;;;;;;;;;5017852;28;20000;-47
2023/12/26 02:04:08;;;;;;;;;;;;;;;;;;5020167;28;19967;-47
2023/12/26 02:06:34;;;;;;;;;;;;;;;;;;5028285;28;19913;-48
2023/12/26 02:09:00;;;;;;;;;;;;;;;;;;5018612;28;19917;-47
2023/12/26 02:11:26;;;;;;;;;;;;;;;;;;5016633;28;19948;-47
2023/12/26 02:13:52;;;;;;;;;;;;;;;;;;5016290;28;19920;-47
2023/12/26 02:16:18;;;;;;;;;;;;;;;;;;5017297;28;19914;-47
2023/12/26 02:18:47;;;;;;;;;;;;;;;;;;5012777;28;19924;-47
2023/12/26 02:21:13;;;;;;;;;;;;;;;;;;5028574;28;19913;-47
2023/12/26 02:23:39;;;;;;;;;;;;;;;;;;5032480;28;19913;-47
2023/12/26 02:26:05;;;;;;;;;;;;;;;;;;5027847;28;20008;-47
2023/12/26 02:28:32;;;;;;;;;;;;;;;;;;5032361;28;19913;-47
2023/12/26 02:30:58;;;;;;;;;;;;;;;;;;5024671;28;20000;-47
2023/12/26 02:33:24;;;;;;;;;;;;;;;;;;5032743;28;20266;-47
2023/12/26 02:35:50;;;;;;;;;;;;;;;;;;5031782;28;19960;-47
2023/12/26 02:38:16;;;;;;;;;;;;;;;;;;5014433;28;19960;-47
2023/12/26 02:40:42;;;;;;;;;;;;;;;;;;5017649;28;19914;-47
2023/12/26 02:43:08;;;;;;;;;;;;;;;;;;5021386;28;19967;-47
2023/12/26 02:45:35;;;;;;;;;;;;;;;;;;5011643;28;19913;-47
2023/12/26 02:48:01;;;;;;;;;;;;;;;;;;5018137;28;19921;-49
2023/12/26 02:50:27;;;;;;;;;;;;;;;;;;5023739;28;19960;-47
2023/12/26 02:52:53;;;;;;;;;;;;;;;;;;5025886;28;19980;-47
2023/12/26 02:55:19;;;;;;;;;;;;;;;;;;5025396;28;19939;-47
2023/12/26 02:57:45;;;;;;;;;;;;;;;;;;5032215;28;19996;-49
2023/12/26 03:00:11;;;;;;;;;;;;;;;;;;5025099;28;19913;-47
2023/12/26 03:02:38;;;;;;;;;;;;;;;;;;5029832;28;19913;-47
2023/12/26 03:05:04;;;;;;;;;;;;;;;;;;5028801;28;20015;-47
2023/12/26 03:07:30;;;;;;;;;;;;;;;;;;5027507;28;19928;-48
2023/12/26 03:09:57;;;;;;;;;;;;;;;;;;5021409;28;20378;-50
2023/12/26 03:12:23;;;;;;;;;;;;;;;;;;5027450;28;19917;-47
2023/12/26 03:14:49;;;;;;;;;;;;;;;;;;5029078;28;19935;-47
2023/12/26 03:17:15;;;;;;;;;;;;;;;;;;5022205;28;19913;-47
2023/12/26 03:19:41;;;;;;;;;;;;;;;;;;5018189;28;19919;-47
2023/12/26 03:22:07;;;;;;;;;;;;;;;;;;5015407;28;19953;-47
2023/12/26 03:24:33;;;;;;;;;;;;;;;;;;5011448;28;19914;-47
2023/12/26 03:27:01;;;;;;;;;;;;;;;;;;5015113;28;19920;-47
2023/12/26 03:29:27;;;;;;;;;;;;;;;;;;5013866;28;20263;-48
2023/12/26 03:31:53;;;;;;;;;;;;;;;;;;5027427;28;20404;-48
2023/12/26 03:34:19;;;;;;;;;;;;;;;;;;5030484;28;20289;-47
2023/12/26 03:36:45;;;;;;;;;;;;;;;;;;5020546;28;19920;-47
2023/12/26 03:39:11;;;;;;;;;;;;;;;;;;5029373;28;20009;-47
2023/12/26 03:41:37;;;;;;;;;;;;;;;;;;5031591;28;20007;-47
2023/12/26 03:44:03;;;;;;;;;;;;;;;;;;5020052;28;19936;-47
2023/12/26 03:46:30;;;;;;;;;;;;;;;;;;5025767;28;20067;-47
2023/12/26 03:48:56;;;;;;;;;;;;;;;;;;5027317;28;19917;-47
2023/12/26 03:51:22;;;;;;;;;;;;;;;;;;5011252;28;19914;-48
2023/12/26 03:53:48;;;;;;;;;;;;;;;;;;5011271;28;20007;-47
2023/12/26 03:56:14;;;;;;;;;;;;;;;;;;5028768;28;19913;-47
2023/12/26 03:58:40;;;;;;;;;;;;;;;;;;5011913;28;19914;-49
2023/12/26 04:01:06;;;;;;;;;;;;;;;;;;5012809;28;20444;-47
2023/12/26 04:03:32;;;;;;;;;;;;;;;;;;5014328;28;19913;-48
2023/12/26 04:05:58;;;;;;;;;;;;;;;;;;5020390;28;20015;-47
2023/12/26 04:08:24;;;;;;;;;;;;;;;;;;5029315;28;19936;-47
2023/12/26 04:10:51;;;;;;;;;;;;;;;;;;5028405;28;19921;-47
2023/12/26 04:13:17;;;;;;;;;;;;;;;;;;5028879;28;19917;-48
2023/12/26 04:15:44;;;;;;;;;;;;;;;;;;5029513;28;19913;-51
2023/12/26 04:18:10;;;;;;;;;;;;;;;;;;5030335;28;19920;-49
2023/12/26 04:20:36;;;;;;;;;;;;;;;;;;5028996;28;20350;-47
2023/12/26 04:23:02;;;;;;;;;;;;;;;;;;5022192;28;19917;-47
2023/12/26 04:25:28;;;;;;;;;;;;;;;;;;5011684;28;20369;-47
2023/12/26 04:27:54;;;;;;;;;;;;;;;;;;5029408;28;20402;-47
2023/12/26 04:30:21;;;;;;;;;;;;;;;;;;5012409;28;20317;-47
2023/12/26 04:32:47;;;;;;;;;;;;;;;;;;4997206;28;19917;-47
2023/12/26 04:35:14;;;;;;;;;;;;;;;;;;4999235;28;19921;-48
2023/12/26 04:37:40;;;;;;;;;;;;;;;;;;5024055;28;19914;-48
2023/12/26 04:40:06;;;;;;;;;;;;;;;;;;5024572;28;19913;-47
2023/12/26 04:42:32;;;;;;;;;;;;;;;;;;5034247;28;20274;-48
2023/12/26 04:44:58;;;;;;;;;;;;;;;;;;5016188;28;19948;-49
2023/12/26 04:47:24;;;;;;;;;;;;;;;;;;5036751;23;19952;-45
2023/12/26 04:49:50;;;;;;;;;;;;;;;;;;5013850;28;20395;-45
2023/12/26 04:52:18;;;;;;;;;;;;;;;;;;5011935;28;19971;-45
2023/12/26 04:54:44;;;;;;;;;;;;;;;;;;5015424;28;20409;-44
2023/12/26 04:57:11;;;;;;;;;;;;;;;;;;5013834;28;20009;-46
2023/12/26 04:59:37;;;;;;;;;;;;;;;;;;5013844;28;19964;-45
2023/12/26 05:02:04;;;;;;;;;;;;;;;;;;5013812;28;19936;-45
2023/12/26 05:04:30;;;;;;;;;;;;;;;;;;4997831;28;20476;-45
2023/12/26 05:06:56;;;;;;;;;;;;;;;;;;5015414;28;20008;-46
2023/12/26 05:09:22;;;;;;;;;;;;;;;;;;5013676;28;20442;-45
2023/12/26 05:11:49;;;;;;;;;;;;;;;;;;5014810;28;20293;-45
2023/12/26 05:14:17;;;;;;;;;;;;;;;;;;5014971;28;19943;-45
2023/12/26 05:16:44;;;;;;;;;;;;;;;;;;5014801;28;19914;-45
2023/12/26 05:19:10;;;;;;;;;;;;;;;;;;5013646;28;20470;-45
2023/12/26 05:21:36;;;;;;;;;;;;;;;;;;5013423;28;19999;-45
2023/12/26 05:24:02;;;;;;;;;;;;;;;;;;5013645;28;19920;-46
2023/12/26 05:26:29;;;;;;;;;;;;;;;;;;5013157;28;19913;-45
2023/12/26 05:28:55;;;;;;;;;;;;;;;;;;5013319;28;19913;-45
2023/12/26 05:31:21;;;;;;;;;;;;;;;;;;5013328;28;19914;-45
2023/12/26 05:33:47;;;;;;;;;;;;;;;;;;5013249;28;20323;-44
2023/12/26 05:36:13;;;;;;;;;;;;;;;;;;5013387;28;19918;-45
2023/12/26 05:38:40;;;;;;;;;;;;;;;;;;4996309;28;19913;-46
2023/12/26 05:41:07;;;;;;;;;;;;;;;;;;5013658;28;20300;-45
2023/12/26 05:43:33;;;;;;;;;;;;;;;;;;5013018;28;19914;-45
2023/12/26 05:45:59;;;;;;;;;;;;;;;;;;5012215;28;19913;-45
2023/12/26 05:48:25;;;;;;;;;;;;;;;;;;5012788;28;20374;-44
2023/12/26 05:50:51;;;;;;;;;;;;;;;;;;5012908;28;19913;-45
2023/12/26 05:53:17;;;;;;;;;;;;;;;;;;5012447;28;19967;-45
2023/12/26 05:55:43;;;;;;;;;;;;;;;;;;5012979;28;19921;-45
2023/12/26 05:58:09;;;;;;;;;;;;;;;;;;5012807;28;19963;-45
2023/12/26 06:00:36;;;;;;;;;;;;;;;;;;4996311;28;20000;-44
2023/12/26 06:03:02;;;;;;;;;;;;;;;;;;5014140;28;19924;-45
2023/12/26 06:05:28;;;;;;;;;;;;;;;;;;5012359;28;19914;-45
2023/12/26 06:07:54;;;;;;;;;;;;;;;;;;5012423;28;19924;-44
2023/12/26 06:10:21;;;;;;;;;;;;;;;;;;5014048;28;19920;-45
2023/12/26 06:12:47;;;;;;;;;;;;;;;;;;5012414;28;19921;-44
2023/12/26 06:15:13;;;;;;;;;;;;;;;;;;5012198;28;20189;-45
2023/12/26 06:17:39;;;;;;;;;;;;;;;;;;5012454;28;20012;-45
2023/12/26 06:20:06;;;;;;;;;;;;;;;;;;5012408;28;19914;-45
2023/12/26 06:22:32;;;;;;;;;;;;;;;;;;5012355;28;20028;-45
2023/12/26 06:24:58;;;;;;;;;;;;;;;;;;4995775;28;19928;-45
2023/12/26 06:27:24;;;;;;;;;;;;;;;;;;5012223;28;19917;-45
2023/12/26 06:29:50;;;;;;;;;;;;;;;;;;5012295;28;19920;-46
2023/12/26 06:32:16;;;;;;;;;;;;;;;;;;5013252;28;19918;-45
2023/12/26 06:34:42;;;;;;;;;;;;;;;;;;5011973;28;19917;-45
2023/12/26 06:37:09;;;;;;;;;;;;;;;;;;4995841;28;19968;-46
2023/12/26 06:39:35;;;;;;;;;;;;;;;;;;5011994;28;20026;-45
2023/12/26 06:42:02;;;;;;;;;;;;;;;;;;5011639;28;19914;-46
2023/12/26 06:44:29;;;;;;;;;;;;;;;;;;5011749;28;19962;-45
2023/12/26 06:46:55;;;;;;;;;;;;;;;;;;5011841;28;19913;-45
2023/12/26 06:49:21;;;;;;;;;;;;;;;;;;5011909;28;19914;-45
2023/12/26 06:51:48;;;;;;;;;;;;;;;;;;5011629;28;19918;-45
2023/12/26 06:54:16;;;;;;;;;;;;;;;;;;5011695;28;19919;-46
2023/12/26 06:56:42;;;;;;;;;;;;;;;;;;5011102;28;19913;-46
2023/12/26 06:59:09;;;;;;;;;;;;;;;;;;5011396;28;20382;-45
2023/12/26 07:01:35;;;;;;;;;;;;;;;;;;5012675;28;20358;-45
2023/12/26 07:04:01;;;;;;;;;;;;;;;;;;5011587;28;19914;-45
2023/12/26 07:06:27;;;;;;;;;;;;;;;;;;4995157;28;20286;-45
2023/12/26 07:08:53;;;;;;;;;;;;;;;;;;5012660;28;20020;-45
2023/12/26 07:11:19;;;;;;;;;;;;;;;;;;5011653;28;19919;-45
2023/12/26 07:13:45;;;;;;;;;;;;;;;;;;5013208;28;19931;-47
2023/12/26 07:16:12;;;;;;;;;;;;;;;;;;5012887;28;19963;-45
2023/12/26 07:18:38;;;;;;;;;;;;;;;;;;5012764;28;19914;-45
2023/12/26 07:21:04;;;;;;;;;;;;;;;;;;5011542;28;20024;-46
2023/12/26 07:23:30;;;;;;;;;;;;;;;;;;5011548;28;19914;-45
2023/12/26 07:25:56;;;;;;;;;;;;;;;;;;5012629;28;19913;-45
2023/12/26 07:28:22;;;;;;;;;;;;;;;;;;5012695;28;20405;-44
2023/12/26 07:30:48;;;;;;;;;;;;;;;;;;5011438;28;20298;-45
2023/12/26 07:33:15;;;;;;;;;;;;;;;;;;5011374;28;19917;-46
2023/12/26 07:35:41;;;;;;;;;;;;;;;;;;5012561;28;19914;-45
2023/12/26 07:38:07;;;;;;;;;;;;;;;;;;5012436;28;19968;-45
2023/12/26 07:40:33;;;;;;;;;;;;;;;;;;5012568;28;20392;-45
2023/12/26 07:42:59;;;;;;;;;;;;;;;;;;5011267;28;20271;-45
2023/12/26 07:45:25;;;;;;;;;;;;;;;;;;5012828;28;20004;-46
2023/12/26 07:47:51;;;;;;;;;;;;;;;;;;5010761;28;19917;-44
2023/12/26 07:50:18;;;;;;;;;;;;;;;;;;5010613;28;19913;-45
2023/12/26 07:52:44;;;;;;;;;;;;;;;;;;5012095;28;19972;-48
2023/12/26 07:55:11;;;;;;;;;;;;;;;;;;5012475;28;20328;-47
2023/12/26 07:57:37;;;;;;;;;;;;;;;;;;5010775;28;19913;-45
2023/12/26 08:00:03;;;;;;;;;;;;;;;;;;5011715;28;19913;-46
2023/12/26 08:02:38;;;;;;;;;;;;;;;;;;5012248;28;19936;-47
2023/12/26 08:05:04;;;;;;;;;;;;;;;;;;5011987;28;19914;-46
2023/12/26 08:07:30;;;;;;;;;;;;;;;;;;5012274;28;20385;-46
2023/12/26 08:09:56;;;;;;;;;;;;;;;;;;5015356;28;19918;-47
2023/12/26 08:12:22;;;;;;;;;;;;;;;;;;5013035;28;20402;-46
2023/12/26 08:14:48;;;;;;;;;;;;;;;;;;5015399;28;19996;-46
2023/12/26 08:17:14;;;;;;;;;;;;;;;;;;5015692;28;20010;-46
2023/12/26 08:19:40;;;;;;;;;;;;;;;;;;5016039;28;19936;-45
2023/12/26 08:22:06;;;;;;;;;;;;;;;;;;5016233;28;20358;-46
2023/12/26 08:24:32;;;;;;;;;;;;;;;;;;5014314;28;19948;-47
2023/12/26 08:26:58;;;;;;;;;;;;;;;;;;5011626;28;19964;-50
2023/12/26 08:29:24;;;;;;;;;;;;;;;;;;5005206;28;19941;-45
2023/12/26 08:31:50;;;;;;;;;;;;;;;;;;5006538;28;20166;-47
2023/12/26 08:34:16;;;;;;;;;;;;;;;;;;5013015;28;20451;-48
2023/12/26 08:36:43;;;;;;;;;;;;;;;;;;5015658;28;19917;-45
2023/12/26 08:39:09;;;;;;;;;;;;;;;;;;5015744;28;19914;-45
2023/12/26 08:41:35;;;;;;;;;;;;;;;;;;5015622;28;19917;-46
2023/12/26 08:44:01;;;;;;;;;;;;;;;;;;5015388;28;19913;-45
2023/12/26 08:46:27;;;;;;;;;;;;;;;;;;5011337;28;19924;-48
2023/12/26 08:48:53;;;;;;;;;;;;;;;;;;5008474;28;19956;-47
2023/12/26 08:51:19;;;;;;;;;;;;;;;;;;4996042;28;20005;-45
2023/12/26 08:53:45;;;;;;;;;;;;;;;;;;4998129;28;19924;-46
2023/12/26 08:56:11;;;;;;;;;;;;;;;;;;5006979;28;19910;-47
2023/12/26 08:58:38;;;;;;;;;;;;;;;;;;4996004;28;20294;-49
2023/12/26 09:01:06;;;;;;;;;;;;;;;;;;5008362;28;20292;-45
2023/12/26 09:03:32;;;;;;;;;;;;;;;;;;5014337;28;19917;-49
2023/12/26 09:05:58;;;;;;;;;;;;;;;;;;5015264;28;19932;-46
2023/12/26 09:08:24;;;;;;;;;;;;;;;;;;5015028;28;19913;-47
2023/12/26 09:10:50;;;;;;;;;;;;;;;;;;5014176;28;19921;-46
2023/12/26 09:13:20;;;;;;;;;;;;;;;;;;5014654;28;19923;-47
2023/12/26 09:15:47;;;;;;;;;;;;;;;;;;5014909;28;19917;-48
2023/12/26 09:18:13;;;;;;;;;;;;;;;;;;5014707;28;19928;-47
2023/12/26 09:20:39;;;;;;;;;;;;;;;;;;5013624;28;19913;-46
2023/12/26 09:23:05;;;;;;;;;;;;;;;;;;5014761;28;19957;-47
2023/12/26 09:25:31;;;;;;;;;;;;;;;;;;5014503;28;19914;-48
2023/12/26 09:27:57;;;;;;;;;;;;;;;;;;5013148;28;20271;-47
2023/12/26 09:30:23;;;;;;;;;;;;;;;;;;5000840;28;19914;-47
2023/12/26 09:32:50;;;;;;;;;;;;;;;;;;5006882;28;19922;-44
2023/12/26 09:35:16;;;;;;;;;;;;;;;;;;5004747;28;19913;-44
2023/12/26 09:37:42;;;;;;;;;;;;;;;;;;4997396;28;20370;-44
2023/12/26 09:40:08;;;;;;;;;;;;;;;;;;5014006;28;19913;-43
2023/12/26 09:42:34;;;;;;;;;;;;;;;;;;5012948;28;19936;-45
2023/12/26 09:45:02;;;;;;;;;;;;;;;;;;5013187;28;19913;-44
2023/12/26 09:47:28;;;;;;;;;;;;;;;;;;5012957;28;19921;-44
2023/12/26 09:49:54;;;;;;;;;;;;;;;;;;5014489;28;20006;-44
2023/12/26 09:52:20;;;;;;;;;;;;;;;;;;5014242;28;19917;-43
2023/12/26 09:54:46;;;;;;;;;;;;;;;;;;5013699;28;19913;-43
2023/12/26 09:57:12;;;;;;;;;;;;;;;;;;5011117;28;19980;-44
2023/12/26 09:59:39;;;;;;;;;;;;;;;;;;5000445;28;19918;-44
2023/12/26 10:02:05;;;;;;;;;;;;;;;;;;5006294;28;19945;-44
2023/12/26 10:04:31;;;;;;;;;;;;;;;;;;5002353;28;19914;-44
2023/12/26 10:06:58;;;;;;;;;;;;;;;;;;4999992;28;19918;-45
2023/12/26 10:09:24;;;;;;;;;;;;;;;;;;5000693;28;19921;-47
2023/12/26 10:11:50;;;;;;;;;;;;;;;;;;5011895;28;20271;-46
2023/12/26 10:14:16;;;;;;;;;;;;;;;;;;5012384;28;20266;-46
2023/12/26 10:16:42;;;;;;;;;;;;;;;;;;5003329;28;20009;-46
2023/12/26 10:19:08;;;;;;;;;;;;;;;;;;4999213;28;19914;-45
2023/12/26 10:51:16;;;;;;;;;;;;;;;;;;5834832;23;19933;-45
2023/12/26 10:53:43;;;;;;;;;;;;;;;;;;4990737;28;19929;-49
2023/12/26 10:56:09;;;;;;;;;;;;;;;;;;4976025;28;19960;-45
2023/12/26 10:58:35;;;;;;;;;;;;;;;;;;4993741;28;19918;-45
2023/12/26 11:01:01;;;;;;;;;;;;;;;;;;4986223;28;19921;-46
2023/12/26 11:03:27;;;;;;;;;;;;;;;;;;4976379;28;20408;-45
2023/12/26 11:05:53;;;;;;;;;;;;;;;;;;5016590;22;20270;-47
2023/12/26 11:08:20;;;;;;;;;;;;;;;;;;5013032;28;19968;-47
2023/12/26 11:10:46;;;;;;;;;;;;;;;;;;5011753;28;19909;-47
2023/12/26 11:13:12;;;;;;;;;;;;;;;;;;5021607;28;19925;-47
2023/12/26 11:15:38;;;;;;;;;;;;;;;;;;5027910;28;19920;-47
2023/12/26 11:18:04;;;;;;;;;;;;;;;;;;5011616;28;19971;-48
2023/12/26 11:20:30;;;;;;;;;;;;;;;;;;5012910;28;19914;-49
2023/12/26 11:22:56;;;;;;;;;;;;;;;;;;5012815;28;19996;-48
2023/12/26 11:25:22;;;;;;;;;;;;;;;;;;5014173;28;20314;-47
2023/12/26 11:27:48;;;;;;;;;;;;;;;;;;5013020;28;19913;-48
2023/12/26 11:30:14;;;;;;;;;;;;;;;;;;5012182;28;20286;-52
2023/12/26 11:32:40;;;;;;;;;;;;;;;;;;5030660;28;19925;-52
2023/12/26 11:35:06;;;;;;;;;;;;;;;;;;5018833;28;19913;-48
2023/12/26 11:37:32;;;;;;;;;;;;;;;;;;5017886;28;19960;-50
2023/12/26 11:39:58;;;;;;;;;;;;;;;;;;5030654;28;20003;-50
2023/12/26 11:42:24;;;;;;;;;;;;;;;;;;5026595;28;19927;-48
2023/12/26 11:44:50;;;;;;;;;;;;;;;;;;5020022;28;19927;-47
2023/12/26 11:47:17;;;;;;;;;;;;;;;;;;5009945;28;19924;-48
2023/12/26 11:49:43;;;;;;;;;;;;;;;;;;5020555;28;20297;-48
2023/12/26 11:52:09;;;;;;;;;;;;;;;;;;5028224;28;19927;-48
2023/12/26 11:54:35;;;;;;;;;;;;;;;;;;5011186;28;20349;-48
2023/12/26 11:57:01;;;;;;;;;;;;;;;;;;5030601;28;20006;-50
2023/12/26 11:59:27;;;;;;;;;;;;;;;;;;5030615;28;19913;-49
2023/12/26 12:01:53;;;;;;;;;;;;;;;;;;5022531;28;20389;-49
2023/12/26 12:04:19;;;;;;;;;;;;;;;;;;5028678;28;20393;-49
2023/12/26 12:06:45;;;;;;;;;;;;;;;;;;5030230;28;19928;-49
2023/12/26 12:09:11;;;;;;;;;;;;;;;;;;4994934;28;19988;-47
2023/12/26 12:11:37;;;;;;;;;;;;;;;;;;5020095;28;19921;-48
2023/12/26 12:14:03;;;;;;;;;;;;;;;;;;5025837;28;20013;-48
2023/12/26 12:16:29;;;;;;;;;;;;;;;;;;5027409;28;20431;-48
2023/12/26 12:18:55;;;;;;;;;;;;;;;;;;5028438;28;19914;-49
2023/12/26 12:21:23;;;;;;;;;;;;;;;;;;5019993;28;19914;-47
2023/12/26 12:23:49;;;;;;;;;;;;;;;;;;5021680;28;19913;-48
2023/12/26 12:26:15;;;;;;;;;;;;;;;;;;5023210;28;19921;-49
2023/12/26 12:28:41;;;;;;;;;;;;;;;;;;5010737;28;19921;-49
2023/12/26 12:31:07;;;;;;;;;;;;;;;;;;5018646;28;20404;-48
2023/12/26 12:33:33;;;;;;;;;;;;;;;;;;5020852;28;19983;-50
2023/12/26 12:49:51;;;;;;;44.65;24.40;;;;;;;;;;5107751;27;20409;-47
2023/12/26 12:52:17;;;;;;;42.40;26.73;;;;;;;;;;5086339;28;20484;-50
2023/12/26 12:54:43;;;;;;;37.10;24.25;;;;;;;;;;5076085;28;20259;-47
2023/12/26 12:57:09;;;;;;;36.25;21.58;;;;;;;;;;5068213;28;20059;-47
2023/12/26 12:59:35;;;;;;;37.63;21.10;;;;;;;;;;5064832;28;20104;-48
2023/12/26 13:02:02;;;;;;;43.20;22.17;;;;;;;;;;5079110;28;20032;-47
2023/12/26 13:04:28;;;;;;;36.08;23.95;;;;;;;;;;5085835;28;20020;-46
2023/12/26 13:06:54;;;;;;;30.55;19.77;;;;;;;;;;5079933;28;20017;-46
2023/12/26 13:09:21;;;;;;;34.42;19.80;;;;;;;;;;5066639;28;20062;-48
2023/12/26 13:11:47;;;;;;;28.52;18.77;;;;;;;;;;5066943;28;20064;-46
2023/12/26 13:14:17;;;;;;;31.60;18.92;;;;;;;;;;5078292;28;20453;-46
2023/12/26 13:16:43;;;;;;;30.77;18.70;;;;;;;;;;5073325;28;20063;-46
2023/12/26 13:19:10;;;;;;;30.63;17.60;;;;;;;;;;5066486;28;20032;-47
2023/12/26 13:21:36;;;;;;;28.60;18.73;;;;;;;;;;5069263;28;20024;-46
2023/12/26 13:24:03;;;;;;;29.48;17.88;;;;;;;;;;5074278;28;20029;-47
2023/12/26 13:26:37;;;;;;;33.53;18.15;;;;;;;;;;5085656;28;20056;-47
2023/12/26 13:29:06;;;;;;;32.50;20.35;;;;;;;;;;5069661;28;20029;-47
2023/12/26 13:31:33;;;;;;;24.48;16.58;;;;;;;;;;5077612;28;20028;-47
2023/12/26 13:33:59;;;;;;;26.20;16.42;;;;;;;;;;5086797;28;20028;-46
2023/12/26 13:36:26;;;;;;;23.25;14.57;;;;;;;;;;5075535;28;20545;-47
2023/12/26 13:38:52;;;;;;;28.02;14.60;;;;;;;;;;5072215;28;20037;-47
2023/12/26 13:41:18;;;;;;;23.75;14.50;;;;;;;;;;5066478;28;20024;-46
2023/12/26 13:43:44;;;;;;;25.30;15.00;;;;;;;;;;5067843;28;20039;-47
2023/12/26 13:46:11;;;;;;;24.00;14.27;;;;;;;;;;5080387;28;20021;-47
2023/12/26 13:48:37;;;;;;;21.90;12.43;;;;;;;;;;5066357;28;20090;-47
2023/12/26 13:51:03;;;;;;;26.23;14.13;;;;;;;;;;5052061;28;20033;-47
2023/12/26 13:53:29;;;;;;;23.98;13.55;;;;;;;;;;5054219;28;20537;-46
2023/12/26 13:55:55;;;;;;;20.35;12.07;;;;;;;;;;5052958;28;20475;-45
2023/12/26 13:58:21;;;;;;;26.92;13.55;;;;;;;;;;5054130;28;20471;-45
2023/12/26 14:00:48;;;;;;;29.00;13.57;;;;;;;;;;5052545;28;20029;-46
2023/12/26 14:03:14;;;;;;;20.73;13.40;;;;;;;;;;5052207;28;20032;-46
2023/12/26 14:05:40;;;;;;;23.08;13.75;;;;;;;;;;5052460;28;20028;-47
2023/12/26 14:08:06;;;;;;;21.05;13.18;;;;;;;;;;5050665;28;20037;-46
2023/12/26 14:10:32;;;;;;;25.05;11.68;;;;;;;;;;5052140;28;20053;-46
2023/12/26 14:12:59;;;;;;;24.95;12.35;;;;;;;;;;5052702;28;20552;-46
2023/12/26 14:15:25;;;;;;;22.75;13.85;;;;;;;;;;5050326;28;20436;-45
2023/12/26 14:17:51;;;;;;;24.92;12.70;;;;;;;;;;5052076;28;20033;-49
2023/12/26 14:20:17;;;;;;;26.65;13.02;;;;;;;;;;5053749;28;20088;-46
2023/12/26 14:22:43;;;;;;;20.75;11.43;;;;;;;;;;5053889;28;20090;-46
2023/12/26 14:25:09;;;;;;;20.02;10.95;;;;;;;;;;5053608;28;20576;-47
2023/12/26 14:27:37;;;;;;;23.58;11.98;;;;;;;;;;5053837;28;20037;-49
2023/12/26 14:30:04;;;;;;;;;;;;;;;;;;5058633;28;20529;-49
2023/12/26 14:32:30;;;;;;;22.05;11.15;;;;;;;;;;5057784;28;19947;-49
2023/12/26 14:34:56;;;;;;;25.40;11.40;;;;;;;;;;5058951;28;20033;-46
2023/12/26 14:37:22;;;;;;;19.00;11.65;;;;;;;;;;5054705;28;20502;-46
2023/12/26 14:39:48;;;;;;;18.58;11.05;;;;;;;;;;5054492;28;20437;-47
2023/12/26 14:42:14;;;;;;;22.50;11.45;;;;;;;;;;5070452;28;20032;-48
2023/12/26 14:44:41;;;;;;;22.23;11.38;;;;;;;;;;5066137;28;20483;-47
2023/12/26 14:47:07;;;;;;;28.10;10.90;;;;;;;;;;5066151;28;20425;-47
2023/12/26 14:49:33;;;;;;;21.20;11.30;;;;;;;;;;5053177;28;20039;-48
2023/12/26 14:51:59;;;;;;;23.50;12.05;;;;;;;;;;5054657;28;20483;-46
2023/12/26 14:54:26;;;;;;;22.80;10.82;;;;;;;;;;5073266;28;20502;-46
2023/12/26 14:56:52;;;;;;;23.33;11.95;;;;;;;;;;5071303;28;20043;-46
2023/12/26 14:59:18;;;;;;;27.30;11.65;;;;;;;;;;5070599;28;20486;-47
2023/12/26 15:01:44;;;;;;;23.75;11.07;;;;;;;;;;5069165;28;20029;-48
2023/12/26 15:04:10;;;;;;;24.67;10.35;;;;;;;;;;5071808;28;20017;-46
2023/12/26 15:06:36;;;;;;;23.65;12.43;;;;;;;;;;5071427;28;20456;-48
2023/12/26 15:09:03;;;;;;;25.55;11.35;;;;;;;;;;5072396;28;20079;-49
2023/12/26 15:11:29;;;;;;;24.00;11.63;;;;;;;;;;5071719;28;20128;-47
2023/12/26 15:13:56;;;;;;;21.58;12.13;;;;;;;;;;5068718;28;20056;-48
2023/12/26 15:16:22;;;;;;;20.23;12.57;;;;;;;;;;5050984;28;20044;-48
2023/12/26 15:18:48;;;;;;;28.63;12.55;;;;;;;;;;5052432;28;20040;-48
2023/12/26 15:21:14;;;;;;;20.98;12.48;;;;;;;;;;5053913;28;20029;-47
2023/12/26 15:23:41;;;;;;;29.35;17.00;;;;;;;;;;5052777;28;20017;-48
2023/12/26 15:26:14;;;;;;;25.30;15.02;;;;;;;;;;5052708;28;20029;-49
2023/12/26 15:28:43;;;;;;;27.88;15.60;;;;;;;;;;5061160;28;20025;-46
2023/12/26 15:31:14;;;;;;;24.42;15.63;;;;;;;;;;5063496;28;20032;-50
2023/12/26 15:33:42;;;;;;;28.17;15.13;;;;;;;;;;5057114;28;20054;-45
2023/12/26 15:36:28;;;;;;;27.40;15.23;;;;;;;;;;5048134;28;20036;-46
2023/12/26 15:38:55;;;;;;;25.33;15.73;;;;;;;;;;5066023;28;20021;-47
2023/12/26 15:41:23;;;;;;;28.43;16.23;;;;;;;;;;5071080;28;20467;-48
2023/12/26 15:43:49;;;;;;;24.10;15.27;;;;;;;;;;5069175;28;20111;-47
2023/12/26 15:46:22;;;;;;;26.43;15.27;;;;;;;;;;5071000;28;20033;-47
2023/12/26 15:48:49;;;;;;;19.55;15.18;;;;;;;;;;5068032;28;20151;-46
2023/12/26 15:51:18;;;;;;;24.55;16.13;;;;;;;;;;5070757;28;20038;-48
2023/12/26 15:53:45;;;;;;;25.75;15.55;;;;;;;;;;5070420;28;20115;-47
2023/12/26 15:56:13;;;;;;;30.50;17.00;;;;;;;;;;5069841;28;20067;-49
2023/12/26 15:58:39;;;;;;;28.30;16.77;;;;;;;;;;5049434;28;20032;-47
2023/12/26 16:01:06;;;;;;;27.35;17.50;;;;;;;;;;5062982;28;20100;-47
2023/12/26 16:03:32;;;;;;;28.08;18.35;;;;;;;;;;5063807;28;20032;-48
2023/12/26 16:05:58;;;;;;;29.38;19.17;;;;;;;;;;5051603;28;20025;-46
2023/12/26 16:08:25;;;;;;;28.27;18.53;;;;;;;;;;5060362;28;20033;-46
2023/12/26 16:10:52;;;;;;;29.70;18.80;;;;;;;;;;5066432;28;20020;-48
2023/12/26 16:13:18;;;;;;;32.85;21.63;;;;;;;;;;5058585;28;20021;-46
2023/12/26 16:15:45;;;;;;;27.25;18.58;;;;;;;;;;5049231;28;20032;-46
2023/12/26 16:18:11;;;;;;;28.42;18.17;;;;;;;;;;5057283;28;20031;-46
2023/12/26 16:20:37;;;;;;;29.98;20.08;;;;;;;;;;5067976;28;20021;-45
2023/12/26 16:23:05;;;;;;;28.60;19.10;;;;;;;;;;5066477;28;20024;-45
2023/12/26 16:25:33;;;;;;;39.97;20.42;;;;;;;;;;5066370;28;20028;-47
2023/12/26 16:27:59;;;;;;;27.60;17.88;;;;;;;;;;5058693;28;20028;-47
2023/12/26 16:30:25;;;;;;;28.53;19.20;;;;;;;;;;5070070;28;20478;-47
2023/12/26 16:32:52;;;;;;;34.30;21.48;;;;;;;;;;5051678;28;20321;-46
2023/12/26 16:35:18;;;;;;;36.08;19.73;;;;;;;;;;5049912;28;20550;-47
2023/12/26 16:37:45;;;;;;;31.02;19.77;;;;;;;;;;5067858;28;20064;-47
2023/12/26 16:40:12;;;;;;;36.42;21.27;;;;;;;;;;5065420;28;20735;-45
2023/12/26 16:42:38;;;;;;;34.42;20.55;;;;;;;;;;5061460;28;20024;-48